createdAt,value
2017-11-15T00:00:13.200Z,5.17
2017-11-15T00:01:13.194Z,5.02
2017-11-15T00:02:13.185Z,5.04
2017-11-15T00:03:13.180Z,4.99
2017-11-15T00:04:13.171Z,5.08
2017-11-15T00:05:13.165Z,5.02
2017-11-15T00:06:13.162Z,5.00
2017-11-15T00:07:13.153Z,4.97
2017-11-15T00:08:13.145Z,4.93
2017-11-15T00:09:13.138Z,4.92
2017-11-15T00:10:13.131Z,4.94
2017-11-15T00:11:13.122Z,4.89
2017-11-15T00:12:13.128Z,4.93
2017-11-15T00:13:13.111Z,4.90
2017-11-15T00:14:13.104Z,4.86
2017-11-15T00:15:13.096Z,4.74
2017-11-15T00:16:13.090Z,4.84
2017-11-15T00:17:13.083Z,4.75
2017-11-15T00:18:13.080Z,4.82
2017-11-15T00:19:13.068Z,4.82
2017-11-15T00:20:13.062Z,4.74
2017-11-15T00:21:13.054Z,4.70
2017-11-15T00:22:13.048Z,4.77
2017-11-15T00:23:13.040Z,4.77
2017-11-15T00:24:13.034Z,4.71
2017-11-15T00:25:13.032Z,4.71
2017-11-15T00:26:13.020Z,4.75
2017-11-15T00:27:13.021Z,4.75
2017-11-15T00:28:13.008Z,4.80
2017-11-15T00:29:13.000Z,4.80
2017-11-15T00:30:12.992Z,4.80
2017-11-15T00:31:12.987Z,4.74
2017-11-15T00:32:12.978Z,4.68
2017-11-15T00:33:12.972Z,4.73
2017-11-15T00:34:12.968Z,4.67
2017-11-15T00:35:12.957Z,4.73
2017-11-15T00:36:12.951Z,4.80
2017-11-15T00:37:12.951Z,4.74
2017-11-15T00:38:12.937Z,4.77
2017-11-15T00:39:12.929Z,4.70
2017-11-15T00:40:12.923Z,4.74
2017-11-15T00:41:12.917Z,4.75
2017-11-15T00:42:12.911Z,4.78
2017-11-15T00:43:12.901Z,4.84
2017-11-15T00:44:12.894Z,4.74
2017-11-15T00:45:12.887Z,4.78
2017-11-15T00:46:12.881Z,4.74
2017-11-15T00:47:12.874Z,4.82
2017-11-15T00:48:12.870Z,4.82
2017-11-15T00:49:12.867Z,4.84
2017-11-15T00:50:12.860Z,4.87
2017-11-15T00:51:12.846Z,4.84
2017-11-15T00:52:12.839Z,4.90
2017-11-15T00:53:12.833Z,4.86
2017-11-15T00:54:12.825Z,4.80
2017-11-15T00:55:12.817Z,4.87
2017-11-15T00:56:12.810Z,4.87
2017-11-15T00:57:12.805Z,4.93
2017-11-15T00:58:12.800Z,4.90
2017-11-15T00:59:12.790Z,4.87
2017-11-15T01:00:12.782Z,4.84
2017-11-15T01:01:12.777Z,4.90
2017-11-15T01:02:12.770Z,4.87
2017-11-15T01:03:12.761Z,4.89
2017-11-15T01:04:12.755Z,4.90
2017-11-15T01:05:12.750Z,4.90
2017-11-15T01:06:12.742Z,4.94
2017-11-15T01:07:12.734Z,4.82
2017-11-15T01:08:12.727Z,4.90
2017-11-15T01:09:12.721Z,4.93
2017-11-15T01:10:12.713Z,4.96
2017-11-15T01:11:12.707Z,4.93
2017-11-15T01:12:12.698Z,4.84
2017-11-15T01:13:12.695Z,5.00
2017-11-15T01:14:12.687Z,5.05
2017-11-15T01:15:12.679Z,4.97
2017-11-15T01:16:12.672Z,5.07
2017-11-15T01:17:12.670Z,5.04
2017-11-15T01:18:12.658Z,5.05
2017-11-15T01:19:12.648Z,4.97
2017-11-15T01:20:12.645Z,5.04
2017-11-15T01:21:12.636Z,5.04
2017-11-15T01:22:12.630Z,5.05
2017-11-15T01:23:12.622Z,5.00
2017-11-15T01:24:12.618Z,5.05
2017-11-15T01:25:12.608Z,5.05
2017-11-15T01:26:12.601Z,5.05
2017-11-15T01:27:12.594Z,5.00
2017-11-15T01:28:12.588Z,5.04
2017-11-15T01:29:12.586Z,5.04
2017-11-15T01:30:12.573Z,5.04
2017-11-15T01:31:12.567Z,5.05
2017-11-15T01:32:12.551Z,5.02
2017-11-15T01:33:12.552Z,5.02
2017-11-15T01:34:12.548Z,4.92
2017-11-15T01:35:12.538Z,5.02
2017-11-15T01:36:12.532Z,4.94
2017-11-15T01:37:12.525Z,5.08
2017-11-15T01:38:12.522Z,4.93
2017-11-15T01:39:12.511Z,4.94
2017-11-15T01:40:12.503Z,5.00
2017-11-15T01:41:12.497Z,5.00
2017-11-15T01:42:12.490Z,5.07
2017-11-15T01:43:12.487Z,5.04
2017-11-15T01:44:12.476Z,5.02
2017-11-15T01:45:12.473Z,5.04
2017-11-15T01:46:12.463Z,5.02
2017-11-15T01:47:12.455Z,5.08
2017-11-15T01:48:12.447Z,5.02
2017-11-15T01:49:12.443Z,5.07
2017-11-15T01:50:12.436Z,4.94
2017-11-15T01:51:12.426Z,5.04
2017-11-15T01:52:12.419Z,5.07
2017-11-15T01:53:12.413Z,4.97
2017-11-15T01:54:12.407Z,5.00
2017-11-15T01:55:12.398Z,5.08
2017-11-15T01:56:12.398Z,5.05
2017-11-15T01:57:12.389Z,5.08
2017-11-15T01:58:12.377Z,5.05
2017-11-15T01:59:12.379Z,5.05
2017-11-15T02:00:12.364Z,5.08
2017-11-15T02:01:12.356Z,5.05
2017-11-15T02:02:12.350Z,4.96
2017-11-15T02:03:12.342Z,5.02
2017-11-15T02:04:12.341Z,5.08
2017-11-15T02:05:12.329Z,5.08
2017-11-15T02:06:12.317Z,4.99
2017-11-15T02:07:12.314Z,4.99
2017-11-15T02:08:12.318Z,5.07
2017-11-15T02:09:12.312Z,5.05
2017-11-15T02:10:12.293Z,5.05
2017-11-15T02:11:12.289Z,4.99
2017-11-15T02:12:12.279Z,4.97
2017-11-15T02:13:12.272Z,4.97
2017-11-15T02:14:12.258Z,5.02
2017-11-15T02:15:12.258Z,4.96
2017-11-15T02:16:12.250Z,4.94
2017-11-15T02:17:12.245Z,4.99
2017-11-15T02:18:12.237Z,4.90
2017-11-15T02:19:12.230Z,4.94
2017-11-15T02:20:12.226Z,4.92
2017-11-15T02:21:12.217Z,4.96
2017-11-15T02:22:12.209Z,4.93
2017-11-15T02:23:12.201Z,4.89
2017-11-15T02:24:12.197Z,4.90
2017-11-15T02:25:12.189Z,4.84
2017-11-15T02:26:12.183Z,4.89
2017-11-15T02:27:12.175Z,4.97
2017-11-15T02:28:12.166Z,4.92
2017-11-15T02:29:12.161Z,4.82
2017-11-15T02:30:12.153Z,4.90
2017-11-15T02:31:12.146Z,4.94
2017-11-15T02:32:12.141Z,4.93
2017-11-15T02:33:12.131Z,4.84
2017-11-15T02:34:12.126Z,4.86
2017-11-15T02:35:12.117Z,4.80
2017-11-15T02:36:12.113Z,4.74
2017-11-15T02:37:12.104Z,4.71
2017-11-15T02:38:12.097Z,4.73
2017-11-15T02:39:12.088Z,4.68
2017-11-15T02:40:12.086Z,4.67
2017-11-15T02:41:12.077Z,4.63
2017-11-15T02:42:12.072Z,4.70
2017-11-15T02:43:12.062Z,4.71
2017-11-15T02:44:12.054Z,4.75
2017-11-15T02:45:12.047Z,4.71
2017-11-15T02:46:12.050Z,4.63
2017-11-15T02:47:12.040Z,4.60
2017-11-15T02:48:12.035Z,4.59
2017-11-15T02:49:12.020Z,4.58
2017-11-15T02:50:12.012Z,4.56
2017-11-15T02:51:12.006Z,4.52
2017-11-15T02:52:12.006Z,4.56
2017-11-15T02:53:12.010Z,4.52
2017-11-15T02:54:11.983Z,4.42
2017-11-15T02:55:11.979Z,4.49
2017-11-15T02:56:11.969Z,4.41
2017-11-15T02:57:11.963Z,4.41
2017-11-15T02:58:11.948Z,4.26
2017-11-15T02:59:11.944Z,4.26
2017-11-15T03:00:11.943Z,4.24
2017-11-15T03:01:11.934Z,4.28
2017-11-15T03:02:11.929Z,4.23
2017-11-15T03:03:11.921Z,4.19
2017-11-15T03:04:11.920Z,4.16
2017-11-15T03:05:11.906Z,4.20
2017-11-15T03:06:11.899Z,4.20
2017-11-15T03:07:11.896Z,4.16
2017-11-15T03:08:11.903Z,4.31
2017-11-15T03:09:11.891Z,4.20
2017-11-15T03:10:11.871Z,4.20
2017-11-15T03:11:11.864Z,4.19
2017-11-15T03:12:11.857Z,4.13
2017-11-15T03:13:11.840Z,4.16
2017-11-15T03:14:11.835Z,4.23
2017-11-15T03:15:11.829Z,4.26
2017-11-15T03:16:11.826Z,4.28
2017-11-15T03:17:11.820Z,4.28
2017-11-15T03:18:11.818Z,4.24
2017-11-15T03:19:11.805Z,4.26
2017-11-15T03:20:11.797Z,4.26
2017-11-15T03:21:11.791Z,4.30
2017-11-15T03:22:11.784Z,4.34
2017-11-15T03:23:11.777Z,4.31
2017-11-15T03:24:11.771Z,4.24
2017-11-15T03:25:11.763Z,4.24
2017-11-15T03:26:11.755Z,4.28
2017-11-15T03:27:11.747Z,4.30
2017-11-15T03:28:11.740Z,4.28
2017-11-15T03:29:11.735Z,4.26
2017-11-15T03:30:11.730Z,4.30
2017-11-15T03:31:11.720Z,4.30
2017-11-15T03:32:11.710Z,4.16
2017-11-15T03:33:11.708Z,4.12
2017-11-15T03:34:11.697Z,4.13
2017-11-15T03:35:11.689Z,4.17
2017-11-15T03:36:11.683Z,4.17
2017-11-15T03:37:11.681Z,4.13
2017-11-15T03:38:11.669Z,4.12
2017-11-15T03:39:11.662Z,4.13
2017-11-15T03:40:11.654Z,4.10
2017-11-15T03:41:11.648Z,4.04
2017-11-15T03:42:11.647Z,4.14
2017-11-15T03:43:11.631Z,3.99
2017-11-15T03:44:11.624Z,3.96
2017-11-15T03:45:11.620Z,3.96
2017-11-15T03:46:11.610Z,3.96
2017-11-15T03:47:11.603Z,3.96
2017-11-15T03:48:11.602Z,3.95
2017-11-15T03:49:11.589Z,3.98
2017-11-15T03:50:11.608Z,3.87
2017-11-15T03:51:11.573Z,3.83
2017-11-15T03:52:11.568Z,3.78
2017-11-15T03:53:11.559Z,3.92
2017-11-15T03:54:11.570Z,3.84
2017-11-15T03:55:11.545Z,3.94
2017-11-15T03:56:11.539Z,3.91
2017-11-15T03:57:11.530Z,3.92
2017-11-15T03:58:11.524Z,3.91
2017-11-15T03:59:11.514Z,3.87
2017-11-15T04:00:11.508Z,3.86
2017-11-15T04:01:11.501Z,3.77
2017-11-15T04:02:11.492Z,3.77
2017-11-15T04:03:11.487Z,3.78
2017-11-15T04:04:11.482Z,3.81
2017-11-15T04:05:11.474Z,3.63
2017-11-15T04:06:11.464Z,3.62
2017-11-15T04:07:11.458Z,3.78
2017-11-15T04:08:11.450Z,3.69
2017-11-15T04:09:11.443Z,3.62
2017-11-15T04:10:11.436Z,3.59
2017-11-15T04:11:11.428Z,3.59
2017-11-15T04:12:11.421Z,3.58
2017-11-15T04:13:11.412Z,3.56
2017-11-15T04:14:11.408Z,3.50
2017-11-15T04:15:11.398Z,3.50
2017-11-15T04:16:11.390Z,3.53
2017-11-15T04:17:11.384Z,3.34
2017-11-15T04:18:11.376Z,3.36
2017-11-15T04:19:11.370Z,3.34
2017-11-15T04:20:11.360Z,3.45
2017-11-15T04:21:11.362Z,3.37
2017-11-15T04:22:11.351Z,3.44
2017-11-15T04:23:11.338Z,3.31
2017-11-15T04:24:11.331Z,3.34
2017-11-15T04:25:11.323Z,3.36
2017-11-15T04:26:11.321Z,3.25
2017-11-15T04:27:11.310Z,3.37
2017-11-15T04:28:11.307Z,3.31
2017-11-15T04:29:11.294Z,3.41
2017-11-15T04:30:11.293Z,3.44
2017-11-15T04:31:11.279Z,3.40
2017-11-15T04:32:11.271Z,3.40
2017-11-15T04:33:11.264Z,3.37
2017-11-15T04:34:11.257Z,3.36
2017-11-15T04:35:11.248Z,3.29
2017-11-15T04:36:11.241Z,3.28
2017-11-15T04:37:11.234Z,3.28
2017-11-15T04:38:11.227Z,3.34
2017-11-15T04:39:11.219Z,3.34
2017-11-15T04:40:11.210Z,3.34
2017-11-15T04:41:11.208Z,3.34
2017-11-15T04:42:11.195Z,3.34
2017-11-15T04:43:11.188Z,3.41
2017-11-15T04:44:11.182Z,3.31
2017-11-15T04:45:11.173Z,3.28
2017-11-15T04:46:11.210Z,3.22
2017-11-15T04:47:11.157Z,3.23
2017-11-15T04:48:11.164Z,3.22
2017-11-15T04:49:11.142Z,3.18
2017-11-15T04:50:11.136Z,3.19
2017-11-15T04:51:11.128Z,3.18
2017-11-15T04:52:11.120Z,3.10
2017-11-15T04:53:11.112Z,3.08
2017-11-15T04:54:11.106Z,3.14
2017-11-15T04:55:11.097Z,3.10
2017-11-15T04:56:11.090Z,3.13
2017-11-15T04:57:11.082Z,3.14
2017-11-15T04:58:11.076Z,3.18
2017-11-15T04:59:11.067Z,3.08
2017-11-15T05:00:11.060Z,2.98
2017-11-15T05:01:11.053Z,2.97
2017-11-15T05:02:11.045Z,2.97
2017-11-15T05:03:11.037Z,2.95
2017-11-15T05:04:11.029Z,2.97
2017-11-15T05:05:11.022Z,2.93
2017-11-15T05:06:11.014Z,2.95
2017-11-15T05:07:11.005Z,2.93
2017-11-15T05:08:10.997Z,2.95
2017-11-15T05:09:10.991Z,3.05
2017-11-15T05:10:10.983Z,2.98
2017-11-15T05:11:10.976Z,2.93
2017-11-15T05:12:10.968Z,2.98
2017-11-15T05:13:10.962Z,2.97
2017-11-15T05:14:10.962Z,2.97
2017-11-15T05:15:10.945Z,3.03
2017-11-15T05:16:10.936Z,3.03
2017-11-15T05:17:10.931Z,2.98
2017-11-15T05:18:10.923Z,2.98
2017-11-15T05:19:10.913Z,2.93
2017-11-15T05:20:10.907Z,2.97
2017-11-15T05:21:10.899Z,3.07
2017-11-15T05:22:10.895Z,3.05
2017-11-15T05:23:10.882Z,3.01
2017-11-15T05:24:10.874Z,3.05
2017-11-15T05:25:10.867Z,3.08
2017-11-15T05:26:10.860Z,3.04
2017-11-15T05:27:10.852Z,3.10
2017-11-15T05:28:10.846Z,3.08
2017-11-15T05:29:10.845Z,3.08
2017-11-15T05:30:10.830Z,2.93
2017-11-15T05:31:10.820Z,2.97
2017-11-15T05:32:10.813Z,2.95
2017-11-15T05:33:10.805Z,3.03
2017-11-15T05:34:10.798Z,2.93
2017-11-15T05:35:10.789Z,2.95
2017-11-15T05:36:10.783Z,3.01
2017-11-15T05:37:10.776Z,2.93
2017-11-15T05:38:10.770Z,2.95
2017-11-15T05:39:10.761Z,2.82
2017-11-15T05:40:10.753Z,2.85
2017-11-15T05:41:10.744Z,2.83
2017-11-15T05:42:10.737Z,2.82
2017-11-15T05:43:10.729Z,2.87
2017-11-15T05:44:10.730Z,2.87
2017-11-15T05:45:10.712Z,2.83
2017-11-15T05:46:10.704Z,2.85
2017-11-15T05:47:10.697Z,2.72
2017-11-15T05:48:10.690Z,2.86
2017-11-15T05:49:10.681Z,2.82
2017-11-15T05:50:10.676Z,2.69
2017-11-15T05:51:10.675Z,2.85
2017-11-15T05:52:10.658Z,2.87
2017-11-15T05:53:10.652Z,2.90
2017-11-15T05:54:10.645Z,2.98
2017-11-15T05:55:10.635Z,3.00
2017-11-15T05:56:10.628Z,2.97
2017-11-15T05:57:10.620Z,3.00
2017-11-15T05:58:10.615Z,2.95
2017-11-15T05:59:10.603Z,2.95
2017-11-15T06:00:10.598Z,2.98
2017-11-15T06:01:10.586Z,3.01
2017-11-15T06:02:10.582Z,2.95
2017-11-15T06:03:10.575Z,2.93
2017-11-15T06:04:10.566Z,2.89
2017-11-15T06:05:10.558Z,2.90
2017-11-15T06:06:10.550Z,2.87
2017-11-15T06:07:10.542Z,2.85
2017-11-15T06:08:10.538Z,2.82
2017-11-15T06:09:10.529Z,2.83
2017-11-15T06:10:10.613Z,2.83
2017-11-15T06:11:10.592Z,2.80
2017-11-15T06:12:10.533Z,2.69
2017-11-15T06:13:10.592Z,2.61
2017-11-15T06:14:10.488Z,2.69
2017-11-15T06:15:10.508Z,2.71
2017-11-15T06:16:10.574Z,2.64
2017-11-15T06:17:10.491Z,2.65
2017-11-15T06:18:10.459Z,2.65
2017-11-15T06:19:10.446Z,2.65
2017-11-15T06:20:10.477Z,2.51
2017-11-15T06:21:10.519Z,2.51
2017-11-15T06:22:10.506Z,2.61
2017-11-15T06:23:10.472Z,2.53
2017-11-15T06:24:10.460Z,2.57
2017-11-15T06:25:10.402Z,2.54
2017-11-15T06:26:10.426Z,2.60
2017-11-15T06:27:10.447Z,2.56
2017-11-15T06:28:10.493Z,2.64
2017-11-15T06:29:10.487Z,2.62
2017-11-15T06:30:10.390Z,2.51
2017-11-15T06:31:10.381Z,2.62
2017-11-15T06:32:10.454Z,2.61
2017-11-15T06:33:10.383Z,2.61
2017-11-15T06:34:10.428Z,2.74
2017-11-15T06:35:10.419Z,2.64
2017-11-15T06:36:10.346Z,2.69
2017-11-15T06:37:10.339Z,2.68
2017-11-15T06:38:10.300Z,2.68
2017-11-15T06:39:10.291Z,2.57
2017-11-15T06:40:10.283Z,2.64
2017-11-15T06:41:10.276Z,2.67
2017-11-15T06:42:10.267Z,2.65
2017-11-15T06:43:10.257Z,2.62
2017-11-15T06:44:10.252Z,2.62
2017-11-15T06:45:10.244Z,2.65
2017-11-15T06:46:10.236Z,2.61
2017-11-15T06:47:10.227Z,2.71
2017-11-15T06:48:10.220Z,2.69
2017-11-15T06:49:10.211Z,2.69
2017-11-15T06:50:10.206Z,2.69
2017-11-15T06:51:10.195Z,2.61
2017-11-15T06:52:10.188Z,2.65
2017-11-15T06:53:10.181Z,2.64
2017-11-15T06:54:10.171Z,2.65
2017-11-15T06:55:10.162Z,2.68
2017-11-15T06:56:10.156Z,2.61
2017-11-15T06:57:10.148Z,2.65
2017-11-15T06:58:10.142Z,2.56
2017-11-15T06:59:10.133Z,2.57
2017-11-15T07:00:10.135Z,2.62
2017-11-15T07:01:10.117Z,2.65
2017-11-15T07:02:10.113Z,2.71
2017-11-15T07:03:10.099Z,2.71
2017-11-15T07:04:10.094Z,2.79
2017-11-15T07:05:10.093Z,2.71
2017-11-15T07:06:10.079Z,2.61
2017-11-15T07:07:10.069Z,2.64
2017-11-15T07:08:10.064Z,2.64
2017-11-15T07:09:10.054Z,2.64
2017-11-15T07:10:10.049Z,2.54
2017-11-15T07:11:10.042Z,2.57
2017-11-15T07:12:10.032Z,2.64
2017-11-15T07:13:10.026Z,2.64
2017-11-15T07:14:10.019Z,2.65
2017-11-15T07:15:10.007Z,2.57
2017-11-15T07:16:09.998Z,2.65
2017-11-15T07:17:09.992Z,2.53
2017-11-15T07:18:09.982Z,2.64
2017-11-15T07:19:09.975Z,2.51
2017-11-15T07:20:09.966Z,2.53
2017-11-15T07:21:09.959Z,2.56
2017-11-15T07:22:09.951Z,2.56
2017-11-15T07:23:09.943Z,2.65
2017-11-15T07:24:09.936Z,2.64
2017-11-15T07:25:09.927Z,2.62
2017-11-15T07:26:09.920Z,2.62
2017-11-15T07:27:09.910Z,2.67
2017-11-15T07:28:09.904Z,2.62
2017-11-15T07:29:09.896Z,2.69
2017-11-15T07:30:09.889Z,2.79
2017-11-15T07:31:09.885Z,2.75
2017-11-15T07:32:09.872Z,2.71
2017-11-15T07:33:09.863Z,2.67
2017-11-15T07:34:09.857Z,2.71
2017-11-15T07:35:09.847Z,2.69
2017-11-15T07:36:09.840Z,2.79
2017-11-15T07:37:09.833Z,2.85
2017-11-15T07:38:09.826Z,2.89
2017-11-15T07:39:09.817Z,2.80
2017-11-15T07:40:09.809Z,2.89
2017-11-15T07:41:09.802Z,2.83
2017-11-15T07:42:09.793Z,2.75
2017-11-15T07:43:09.790Z,2.86
2017-11-15T07:44:09.793Z,2.83
2017-11-15T07:45:09.784Z,2.97
2017-11-15T07:46:09.767Z,2.92
2017-11-15T07:47:09.758Z,2.95
2017-11-15T07:48:09.739Z,2.93
2017-11-15T07:49:09.735Z,3.03
2017-11-15T07:50:09.730Z,3.10
2017-11-15T07:51:09.722Z,3.10
2017-11-15T07:52:09.715Z,3.16
2017-11-15T07:53:09.717Z,3.18
2017-11-15T07:54:09.715Z,3.08
2017-11-15T07:55:09.715Z,3.13
2017-11-15T07:56:09.683Z,3.13
2017-11-15T07:57:09.682Z,3.10
2017-11-15T07:58:09.673Z,3.13
2017-11-15T07:59:09.658Z,3.22
2017-11-15T08:00:09.660Z,3.22
2017-11-15T08:01:09.644Z,3.29
2017-11-15T08:02:09.639Z,3.28
2017-11-15T08:03:09.636Z,3.34
2017-11-15T08:04:09.622Z,3.32
2017-11-15T08:05:09.615Z,3.37
2017-11-15T08:06:09.604Z,3.41
2017-11-15T08:07:09.598Z,3.37
2017-11-15T08:08:09.591Z,3.40
2017-11-15T08:09:09.583Z,3.47
2017-11-15T08:10:09.586Z,3.55
2017-11-15T08:11:09.578Z,3.56
2017-11-15T08:12:09.560Z,3.53
2017-11-15T08:13:09.554Z,3.56
2017-11-15T08:14:09.545Z,3.51
2017-11-15T08:15:09.538Z,3.53
2017-11-15T08:16:09.533Z,3.56
2017-11-15T08:17:09.534Z,3.45
2017-11-15T08:18:09.515Z,3.40
2017-11-15T08:19:09.513Z,3.40
2017-11-15T08:20:09.501Z,3.41
2017-11-15T08:21:09.495Z,3.32
2017-11-15T08:22:09.484Z,3.40
2017-11-15T08:23:09.476Z,3.40
2017-11-15T08:24:09.470Z,3.41
2017-11-15T08:25:09.463Z,3.48
2017-11-15T08:26:09.454Z,3.47
2017-11-15T08:27:09.447Z,3.42
2017-11-15T08:28:09.438Z,3.48
2017-11-15T08:29:09.432Z,3.58
2017-11-15T08:30:09.425Z,3.56
2017-11-15T08:31:09.415Z,3.73
2017-11-15T08:32:09.412Z,3.66
2017-11-15T08:33:09.400Z,3.65
2017-11-15T08:34:09.394Z,3.65
2017-11-15T08:35:09.384Z,3.70
2017-11-15T08:36:09.379Z,3.66
2017-11-15T08:37:09.371Z,3.70
2017-11-15T08:38:09.365Z,3.76
2017-11-15T08:39:09.353Z,3.76
2017-11-15T08:40:09.349Z,3.77
2017-11-15T08:41:09.341Z,3.83
2017-11-15T08:42:09.334Z,3.74
2017-11-15T08:43:09.326Z,3.87
2017-11-15T08:44:09.319Z,3.81
2017-11-15T08:45:09.313Z,3.80
2017-11-15T08:46:09.303Z,3.78
2017-11-15T08:47:09.295Z,3.80
2017-11-15T08:48:09.290Z,3.83
2017-11-15T08:49:09.283Z,3.86
2017-11-15T08:50:09.278Z,3.78
2017-11-15T08:51:09.266Z,3.81
2017-11-15T08:52:09.259Z,3.95
2017-11-15T08:53:09.251Z,3.83
2017-11-15T08:54:09.244Z,3.94
2017-11-15T08:55:09.236Z,3.95
2017-11-15T08:56:09.230Z,3.88
2017-11-15T08:57:09.230Z,3.98
2017-11-15T08:58:09.214Z,3.96
2017-11-15T08:59:09.207Z,3.88
2017-11-15T09:00:09.199Z,3.98
2017-11-15T09:01:09.193Z,3.94
2017-11-15T09:02:09.184Z,3.98
2017-11-15T09:03:09.176Z,4.12
2017-11-15T09:04:09.171Z,4.08
2017-11-15T09:05:09.162Z,4.05
2017-11-15T09:06:09.157Z,4.06
2017-11-15T09:07:09.147Z,4.13
2017-11-15T09:08:09.141Z,4.10
2017-11-15T09:09:09.133Z,4.17
2017-11-15T09:10:09.127Z,4.17
2017-11-15T09:11:09.118Z,4.17
2017-11-15T09:12:09.111Z,4.13
2017-11-15T09:13:09.107Z,4.20
2017-11-15T09:14:09.097Z,4.19
2017-11-15T09:15:09.091Z,4.17
2017-11-15T09:16:09.081Z,4.17
2017-11-15T09:17:09.076Z,4.10
2017-11-15T09:18:09.069Z,4.16
2017-11-15T09:19:09.061Z,4.12
2017-11-15T09:20:09.054Z,4.19
2017-11-15T09:21:09.047Z,4.23
2017-11-15T09:22:09.040Z,4.31
2017-11-15T09:23:09.032Z,4.31
2017-11-15T09:24:09.025Z,4.40
2017-11-15T09:25:09.020Z,4.44
2017-11-15T09:26:09.010Z,4.50
2017-11-15T09:27:09.004Z,4.58
2017-11-15T09:28:08.996Z,4.55
2017-11-15T09:29:08.991Z,4.56
2017-11-15T09:30:08.983Z,4.52
2017-11-15T09:31:08.976Z,4.63
2017-11-15T09:32:08.965Z,4.67
2017-11-15T09:33:08.963Z,4.74
2017-11-15T09:34:08.955Z,4.73
2017-11-15T09:35:08.946Z,4.62
2017-11-15T09:36:08.939Z,4.68
2017-11-15T09:37:08.933Z,4.70
2017-11-15T09:38:08.929Z,4.77
2017-11-15T09:39:08.918Z,4.89
2017-11-15T09:40:08.912Z,4.90
2017-11-15T09:41:08.905Z,4.93
2017-11-15T09:42:08.898Z,4.86
2017-11-15T09:43:08.885Z,5.05
2017-11-15T09:44:08.886Z,5.00
2017-11-15T09:45:08.878Z,4.94
2017-11-15T09:46:08.873Z,5.00
2017-11-15T09:47:08.862Z,5.07
2017-11-15T09:48:08.857Z,5.04
2017-11-15T09:49:08.850Z,5.05
2017-11-15T09:50:08.845Z,5.17
2017-11-15T09:51:08.843Z,5.15
2017-11-15T09:52:08.830Z,5.11
2017-11-15T09:53:08.823Z,5.18
2017-11-15T09:54:08.816Z,5.21
2017-11-15T09:55:08.809Z,5.07
2017-11-15T09:56:08.802Z,5.02
2017-11-15T09:57:08.796Z,5.15
2017-11-15T09:58:08.791Z,5.17
2017-11-15T09:59:08.818Z,5.10
2017-11-15T10:00:08.785Z,5.11
2017-11-15T10:01:08.770Z,5.00
2017-11-15T10:02:08.761Z,5.00
2017-11-15T10:03:08.757Z,5.05
2017-11-15T10:04:08.749Z,5.08
2017-11-15T10:05:08.742Z,5.05
2017-11-15T10:06:08.736Z,5.05
2017-11-15T10:07:08.731Z,5.07
2017-11-15T10:08:08.721Z,5.15
2017-11-15T10:09:08.716Z,5.17
2017-11-15T10:10:08.709Z,5.18
2017-11-15T10:11:08.702Z,5.29
2017-11-15T10:12:08.693Z,5.23
2017-11-15T10:13:08.690Z,5.25
2017-11-15T10:14:08.681Z,5.28
2017-11-15T10:15:08.674Z,5.41
2017-11-15T10:16:08.669Z,5.33
2017-11-15T10:17:08.661Z,5.36
2017-11-15T10:18:08.655Z,5.33
2017-11-15T10:19:08.648Z,5.43
2017-11-15T10:20:08.642Z,5.29
2017-11-15T10:21:08.635Z,5.30
2017-11-15T10:22:08.629Z,5.35
2017-11-15T10:23:08.625Z,5.30
2017-11-15T10:24:08.615Z,5.38
2017-11-15T10:25:08.615Z,5.48
2017-11-15T10:26:08.604Z,5.47
2017-11-15T10:27:08.599Z,5.56
2017-11-15T10:28:08.589Z,5.61
2017-11-15T10:29:08.588Z,5.73
2017-11-15T10:30:08.580Z,5.82
2017-11-15T10:31:08.569Z,5.87
2017-11-15T10:32:08.563Z,5.91
2017-11-15T10:33:08.556Z,5.99
2017-11-15T10:34:08.550Z,5.99
2017-11-15T10:35:08.544Z,6.05
2017-11-15T10:36:08.537Z,5.98
2017-11-15T10:37:08.532Z,5.99
2017-11-15T10:38:08.526Z,5.98
2017-11-15T10:39:08.519Z,6.11
2017-11-15T10:40:08.512Z,5.99
2017-11-15T10:41:08.506Z,6.04
2017-11-15T10:42:08.503Z,6.02
2017-11-15T10:43:08.494Z,6.01
2017-11-15T10:44:08.487Z,6.01
2017-11-15T10:45:08.481Z,6.02
2017-11-15T10:46:08.476Z,6.05
2017-11-15T10:47:08.468Z,6.05
2017-11-15T10:48:08.463Z,5.94
2017-11-15T10:49:08.456Z,6.02
2017-11-15T10:50:08.455Z,5.90
2017-11-15T10:51:08.451Z,6.08
2017-11-15T10:52:08.441Z,6.05
2017-11-15T10:53:08.433Z,6.09
2017-11-15T10:54:08.426Z,5.97
2017-11-15T10:55:08.421Z,5.93
2017-11-15T10:56:08.414Z,5.83
2017-11-15T10:57:08.406Z,5.73
2017-11-15T10:58:08.403Z,5.72
2017-11-15T10:59:08.394Z,5.80
2017-11-15T11:00:08.389Z,5.75
2017-11-15T11:01:08.385Z,5.76
2017-11-15T11:02:08.376Z,5.79
2017-11-15T11:03:08.368Z,5.76
2017-11-15T11:04:08.367Z,5.79
2017-11-15T11:05:08.357Z,5.73
2017-11-15T11:06:08.353Z,5.75
2017-11-15T11:07:08.346Z,5.56
2017-11-15T11:08:08.337Z,5.69
2017-11-15T11:09:08.335Z,5.69
2017-11-15T11:10:08.325Z,5.72
2017-11-15T11:11:08.319Z,5.66
2017-11-15T11:12:08.314Z,5.68
2017-11-15T11:13:08.307Z,5.68
2017-11-15T11:14:08.301Z,5.71
2017-11-15T11:15:08.296Z,5.66
2017-11-15T11:16:08.290Z,5.73
2017-11-15T11:17:08.281Z,5.71
2017-11-15T11:18:08.280Z,5.75
2017-11-15T11:19:08.269Z,5.73
2017-11-15T11:20:08.262Z,5.79
2017-11-15T11:21:08.257Z,5.91
2017-11-15T11:22:08.251Z,5.98
2017-11-15T11:23:08.244Z,6.07
2017-11-15T11:24:08.238Z,5.97
2017-11-15T11:25:08.232Z,6.14
2017-11-15T11:26:08.227Z,6.17
2017-11-15T11:27:08.218Z,6.22
2017-11-15T11:28:08.214Z,6.22
2017-11-15T11:29:08.207Z,6.16
2017-11-15T11:30:08.201Z,6.30
2017-11-15T11:31:08.194Z,6.30
2017-11-15T11:32:08.188Z,6.35
2017-11-15T11:33:08.184Z,6.30
2017-11-15T11:34:08.176Z,6.31
2017-11-15T11:35:08.170Z,6.30
2017-11-15T11:36:08.164Z,6.33
2017-11-15T11:37:08.158Z,6.38
2017-11-15T11:38:08.152Z,6.36
2017-11-15T11:39:08.145Z,6.36
2017-11-15T11:40:08.138Z,6.31
2017-11-15T11:41:08.133Z,6.35
2017-11-15T11:42:08.128Z,6.31
2017-11-15T11:43:08.122Z,6.28
2017-11-15T11:44:08.117Z,6.33
2017-11-15T11:45:08.108Z,6.33
2017-11-15T11:46:08.104Z,6.36
2017-11-15T11:47:08.097Z,6.19
2017-11-15T11:48:08.089Z,6.31
2017-11-15T11:49:08.084Z,6.33
2017-11-15T11:50:08.078Z,6.33
2017-11-15T11:51:08.071Z,6.31
2017-11-15T11:52:08.071Z,6.36
2017-11-15T11:53:08.060Z,6.42
2017-11-15T11:54:08.054Z,6.41
2017-11-15T11:55:08.048Z,6.45
2017-11-15T11:56:08.046Z,6.48
2017-11-15T11:57:08.035Z,6.44
2017-11-15T11:58:08.029Z,6.33
2017-11-15T11:59:08.022Z,6.35
2017-11-15T12:00:08.017Z,6.31
2017-11-15T12:01:08.013Z,6.42
2017-11-15T12:02:08.004Z,6.41
2017-11-15T12:03:07.998Z,6.41
2017-11-15T12:04:08.031Z,6.44
2017-11-15T12:05:07.986Z,6.45
2017-11-15T12:06:07.981Z,6.31
2017-11-15T12:07:07.974Z,6.42
2017-11-15T12:08:07.970Z,6.33
2017-11-15T12:09:07.961Z,6.46
2017-11-15T12:10:07.978Z,6.46
2017-11-15T12:11:07.950Z,6.52
2017-11-15T12:12:07.944Z,6.49
2017-11-15T12:13:07.938Z,6.56
2017-11-15T12:14:07.926Z,6.63
2017-11-15T12:15:07.925Z,6.57
2017-11-15T12:16:07.919Z,6.57
2017-11-15T12:17:07.912Z,6.57
2017-11-15T12:18:07.908Z,6.44
2017-11-15T12:19:07.903Z,6.48
2017-11-15T12:20:07.895Z,6.45
2017-11-15T12:21:07.891Z,6.26
2017-11-15T12:22:07.881Z,6.16
2017-11-15T12:23:07.877Z,6.24
2017-11-15T12:24:07.875Z,6.33
2017-11-15T12:25:07.864Z,6.36
2017-11-15T12:26:07.860Z,6.41
2017-11-15T12:27:07.852Z,6.42
2017-11-15T12:28:07.845Z,6.49
2017-11-15T12:29:07.839Z,6.60
2017-11-15T12:30:07.834Z,6.60
2017-11-15T12:31:07.827Z,6.66
2017-11-15T12:32:07.821Z,6.60
2017-11-15T12:33:07.815Z,6.57
2017-11-15T12:34:07.809Z,6.66
2017-11-15T12:35:07.802Z,6.70
2017-11-15T12:36:07.797Z,6.81
2017-11-15T12:37:07.792Z,6.81
2017-11-15T12:38:07.784Z,6.88
2017-11-15T12:39:07.778Z,6.89
2017-11-15T12:40:07.771Z,6.99
2017-11-15T12:41:07.765Z,6.89
2017-11-15T12:42:07.763Z,6.82
2017-11-15T12:43:07.753Z,6.87
2017-11-15T12:44:07.748Z,6.89
2017-11-15T12:45:07.755Z,7.02
2017-11-15T12:46:07.737Z,7.02
2017-11-15T12:47:07.729Z,7.11
2017-11-15T12:48:07.724Z,7.13
2017-11-15T12:49:07.717Z,7.18
2017-11-15T12:50:07.712Z,7.23
2017-11-15T12:51:07.706Z,7.03
2017-11-15T12:52:07.708Z,7.07
2017-11-15T12:53:07.695Z,7.14
2017-11-15T12:54:07.692Z,7.18
2017-11-15T12:55:07.681Z,7.23
2017-11-15T12:56:07.686Z,7.24
2017-11-15T12:57:07.670Z,7.14
2017-11-15T12:58:07.664Z,7.17
2017-11-15T12:59:07.658Z,7.23
2017-11-15T13:00:07.652Z,7.32
2017-11-15T13:01:07.650Z,7.28
2017-11-15T13:02:07.641Z,7.36
2017-11-15T13:03:07.634Z,7.31
2017-11-15T13:04:07.628Z,7.23
2017-11-15T13:05:07.622Z,7.24
2017-11-15T13:06:07.617Z,7.32
2017-11-15T13:07:07.611Z,7.36
2017-11-15T13:08:07.605Z,7.33
2017-11-15T13:09:07.601Z,7.18
2017-11-15T13:10:07.593Z,7.18
2017-11-15T13:11:07.587Z,7.28
2017-11-15T13:12:07.583Z,7.39
2017-11-15T13:13:07.577Z,7.21
2017-11-15T13:14:07.569Z,7.32
2017-11-15T13:15:07.564Z,7.40
2017-11-15T13:16:07.566Z,7.33
2017-11-15T13:17:07.557Z,7.33
2017-11-15T13:18:07.549Z,7.39